sensor_id;sensor_type;location;lat;lon;timestamp;P1;durP1;ratioP1;P2;durP2;ratioP2
23432;SDS011;41331;45.412;10.992;2022-10-31T00:01:22;17.75;;;7.60;;
23432;SDS011;41331;45.412;10.992;2022-10-31T00:03:52;17.83;;;7.45;;
23432;SDS011;41331;45.412;10.992;2022-10-31T00:06:20;20.88;;;7.43;;
23432;SDS011;41331;45.412;10.992;2022-10-31T00:08:58;20.00;;;7.57;;
23432;SDS011;41331;45.412;10.992;2022-10-31T00:11:27;18.20;;;7.47;;
23432;SDS011;41331;45.412;10.992;2022-10-31T00:13:55;19.05;;;7.57;;
23432;SDS011;41331;45.412;10.992;2022-10-31T00:16:24;19.70;;;7.50;;
23432;SDS011;41331;45.412;10.992;2022-10-31T00:18:53;15.25;;;7.63;;
23432;SDS011;41331;45.412;10.992;2022-10-31T00:21:23;15.38;;;7.70;;
23432;SDS011;41331;45.412;10.992;2022-10-31T00:23:51;15.70;;;7.50;;
23432;SDS011;41331;45.412;10.992;2022-10-31T00:26:19;16.52;;;7.75;;
23432;SDS011;41331;45.412;10.992;2022-10-31T00:28:47;19.70;;;7.40;;
23432;SDS011;41331;45.412;10.992;2022-10-31T00:31:14;19.65;;;7.20;;
23432;SDS011;41331;45.412;10.992;2022-10-31T00:33:42;19.55;;;7.90;;
23432;SDS011;41331;45.412;10.992;2022-10-31T00:36:11;16.38;;;7.60;;
23432;SDS011;41331;45.412;10.992;2022-10-31T00:38:44;18.25;;;7.35;;
23432;SDS011;41331;45.412;10.992;2022-10-31T00:41:13;14.73;;;7.03;;
23432;SDS011;41331;45.412;10.992;2022-10-31T00:43:42;18.05;;;6.72;;
23432;SDS011;41331;45.412;10.992;2022-10-31T00:46:10;17.65;;;7.35;;
23432;SDS011;41331;45.412;10.992;2022-10-31T00:48:38;20.00;;;7.07;;
23432;SDS011;41331;45.412;10.992;2022-10-31T00:51:06;20.30;;;8.05;;
23432;SDS011;41331;45.412;10.992;2022-10-31T00:53:35;15.10;;;7.32;;
23432;SDS011;41331;45.412;10.992;2022-10-31T00:56:03;22.08;;;7.45;;
23432;SDS011;41331;45.412;10.992;2022-10-31T00:58:31;15.65;;;6.93;;
23432;SDS011;41331;45.412;10.992;2022-10-31T01:00:58;25.48;;;7.97;;
23432;SDS011;41331;45.412;10.992;2022-10-31T01:03:27;17.75;;;6.95;;
23432;SDS011;41331;45.412;10.992;2022-10-31T01:06:01;18.42;;;7.93;;
23432;SDS011;41331;45.412;10.992;2022-10-31T01:08:32;20.15;;;7.20;;
23432;SDS011;41331;45.412;10.992;2022-10-31T01:13:35;21.75;;;8.07;;
23432;SDS011;41331;45.412;10.992;2022-10-31T01:16:04;19.45;;;7.57;;
23432;SDS011;41331;45.412;10.992;2022-10-31T01:18:33;14.38;;;6.93;;
23432;SDS011;41331;45.412;10.992;2022-10-31T01:21:03;16.90;;;7.32;;
23432;SDS011;41331;45.412;10.992;2022-10-31T01:23:33;18.40;;;7.75;;
23432;SDS011;41331;45.412;10.992;2022-10-31T01:26:02;21.17;;;8.15;;
23432;SDS011;41331;45.412;10.992;2022-10-31T01:28:32;20.20;;;7.60;;
23432;SDS011;41331;45.412;10.992;2022-10-31T01:31:05;19.75;;;7.68;;
23432;SDS011;41331;45.412;10.992;2022-10-31T01:33:35;18.45;;;8.05;;
23432;SDS011;41331;45.412;10.992;2022-10-31T01:38:51;18.42;;;7.53;;
23432;SDS011;41331;45.412;10.992;2022-10-31T01:41:21;17.90;;;7.70;;
23432;SDS011;41331;45.412;10.992;2022-10-31T01:43:55;23.48;;;7.75;;
23432;SDS011;41331;45.412;10.992;2022-10-31T01:46:32;18.95;;;7.70;;
23432;SDS011;41331;45.412;10.992;2022-10-31T01:49:04;17.13;;;7.65;;
23432;SDS011;41331;45.412;10.992;2022-10-31T01:51:37;17.63;;;8.00;;
23432;SDS011;41331;45.412;10.992;2022-10-31T01:54:09;19.58;;;8.13;;
23432;SDS011;41331;45.412;10.992;2022-10-31T01:56:40;15.13;;;7.90;;
23432;SDS011;41331;45.412;10.992;2022-10-31T01:59:12;23.10;;;7.47;;
23432;SDS011;41331;45.412;10.992;2022-10-31T02:01:45;19.33;;;7.93;;
23432;SDS011;41331;45.412;10.992;2022-10-31T02:04:14;17.80;;;8.07;;
23432;SDS011;41331;45.412;10.992;2022-10-31T02:06:48;17.92;;;7.28;;
23432;SDS011;41331;45.412;10.992;2022-10-31T02:09:21;24.88;;;8.88;;
23432;SDS011;41331;45.412;10.992;2022-10-31T02:11:54;17.80;;;7.50;;
23432;SDS011;41331;45.412;10.992;2022-10-31T02:14:25;15.18;;;7.22;;
23432;SDS011;41331;45.412;10.992;2022-10-31T02:16:55;20.60;;;8.23;;
23432;SDS011;41331;45.412;10.992;2022-10-31T02:33:36;19.48;;;8.23;;
23432;SDS011;41331;45.412;10.992;2022-10-31T02:36:27;17.08;;;8.30;;
23432;SDS011;41331;45.412;10.992;2022-10-31T02:42:07;16.50;;;7.65;;
23432;SDS011;41331;45.412;10.992;2022-10-31T02:47:26;22.85;;;7.85;;
23432;SDS011;41331;45.412;10.992;2022-10-31T02:50:00;21.27;;;8.35;;
23432;SDS011;41331;45.412;10.992;2022-10-31T02:52:41;20.55;;;7.82;;
23432;SDS011;41331;45.412;10.992;2022-10-31T02:55:09;21.55;;;8.32;;
23432;SDS011;41331;45.412;10.992;2022-10-31T02:57:37;20.35;;;8.55;;
23432;SDS011;41331;45.412;10.992;2022-10-31T03:00:08;18.10;;;8.10;;
23432;SDS011;41331;45.412;10.992;2022-10-31T03:11:01;20.50;;;8.77;;
23432;SDS011;41331;45.412;10.992;2022-10-31T03:19:17;19.88;;;8.43;;
23432;SDS011;41331;45.412;10.992;2022-10-31T03:21:57;20.77;;;8.52;;
23432;SDS011;41331;45.412;10.992;2022-10-31T03:24:30;21.85;;;9.07;;
23432;SDS011;41331;45.412;10.992;2022-10-31T03:27:02;17.60;;;8.25;;
23432;SDS011;41331;45.412;10.992;2022-10-31T03:29:34;21.55;;;8.65;;
23432;SDS011;41331;45.412;10.992;2022-10-31T03:32:08;22.55;;;8.32;;
23432;SDS011;41331;45.412;10.992;2022-10-31T03:34:41;19.17;;;8.82;;
23432;SDS011;41331;45.412;10.992;2022-10-31T03:37:10;20.58;;;7.90;;
23432;SDS011;41331;45.412;10.992;2022-10-31T03:39:41;20.42;;;7.93;;
23432;SDS011;41331;45.412;10.992;2022-10-31T03:42:13;18.33;;;7.95;;
23432;SDS011;41331;45.412;10.992;2022-10-31T03:44:46;17.17;;;7.82;;
23432;SDS011;41331;45.412;10.992;2022-10-31T03:47:18;18.27;;;8.30;;
23432;SDS011;41331;45.412;10.992;2022-10-31T03:49:48;20.13;;;8.70;;
23432;SDS011;41331;45.412;10.992;2022-10-31T03:54:56;20.73;;;8.32;;
23432;SDS011;41331;45.412;10.992;2022-10-31T03:57:33;16.77;;;7.65;;
23432;SDS011;41331;45.412;10.992;2022-10-31T04:00:10;15.75;;;7.53;;
23432;SDS011;41331;45.412;10.992;2022-10-31T04:02:53;20.75;;;9.15;;
23432;SDS011;41331;45.412;10.992;2022-10-31T04:05:30;18.95;;;8.02;;
23432;SDS011;41331;45.412;10.992;2022-10-31T04:08:00;16.88;;;7.82;;
23432;SDS011;41331;45.412;10.992;2022-10-31T04:10:31;20.77;;;7.55;;
23432;SDS011;41331;45.412;10.992;2022-10-31T04:13:03;17.17;;;7.63;;
23432;SDS011;41331;45.412;10.992;2022-10-31T04:15:43;15.75;;;6.88;;
23432;SDS011;41331;45.412;10.992;2022-10-31T04:18:12;15.55;;;7.90;;
23432;SDS011;41331;45.412;10.992;2022-10-31T04:20:41;16.42;;;7.22;;
23432;SDS011;41331;45.412;10.992;2022-10-31T04:25:50;16.70;;;7.07;;
23432;SDS011;41331;45.412;10.992;2022-10-31T04:28:18;20.65;;;8.27;;
23432;SDS011;41331;45.412;10.992;2022-10-31T04:30:51;25.00;;;7.30;;
23432;SDS011;41331;45.412;10.992;2022-10-31T04:33:19;19.50;;;7.50;;
23432;SDS011;41331;45.412;10.992;2022-10-31T04:35:47;19.98;;;7.00;;
23432;SDS011;41331;45.412;10.992;2022-10-31T04:38:15;18.30;;;7.68;;
23432;SDS011;41331;45.412;10.992;2022-10-31T04:40:44;18.52;;;7.78;;
23432;SDS011;41331;45.412;10.992;2022-10-31T04:43:20;15.95;;;7.53;;
23432;SDS011;41331;45.412;10.992;2022-10-31T04:45:48;18.20;;;7.10;;
23432;SDS011;41331;45.412;10.992;2022-10-31T04:48:18;22.98;;;7.28;;
23432;SDS011;41331;45.412;10.992;2022-10-31T04:50:47;22.50;;;7.55;;
23432;SDS011;41331;45.412;10.992;2022-10-31T04:53:14;15.40;;;7.03;;
23432;SDS011;41331;45.412;10.992;2022-10-31T04:56:07;19.05;;;7.72;;
23432;SDS011;41331;45.412;10.992;2022-10-31T04:58:40;17.27;;;7.28;;
23432;SDS011;41331;45.412;10.992;2022-10-31T05:01:09;19.38;;;7.93;;
23432;SDS011;41331;45.412;10.992;2022-10-31T05:03:37;18.80;;;7.53;;
23432;SDS011;41331;45.412;10.992;2022-10-31T05:06:06;18.77;;;8.30;;
23432;SDS011;41331;45.412;10.992;2022-10-31T05:08:35;20.77;;;8.70;;
23432;SDS011;41331;45.412;10.992;2022-10-31T05:11:06;26.58;;;10.25;;
23432;SDS011;41331;45.412;10.992;2022-10-31T05:13:33;23.90;;;10.63;;
23432;SDS011;41331;45.412;10.992;2022-10-31T05:16:13;22.20;;;11.32;;
23432;SDS011;41331;45.412;10.992;2022-10-31T05:18:59;24.00;;;11.85;;
23432;SDS011;41331;45.412;10.992;2022-10-31T05:21:45;23.85;;;11.75;;
23432;SDS011;41331;45.412;10.992;2022-10-31T05:24:12;29.70;;;11.95;;
23432;SDS011;41331;45.412;10.992;2022-10-31T05:26:45;29.40;;;11.60;;
23432;SDS011;41331;45.412;10.992;2022-10-31T05:29:13;25.92;;;12.35;;
23432;SDS011;41331;45.412;10.992;2022-10-31T05:31:40;26.65;;;11.75;;
23432;SDS011;41331;45.412;10.992;2022-10-31T05:34:18;26.17;;;12.30;;
23432;SDS011;41331;45.412;10.992;2022-10-31T05:37:24;28.17;;;12.15;;
23432;SDS011;41331;45.412;10.992;2022-10-31T05:39:52;21.05;;;10.35;;
23432;SDS011;41331;45.412;10.992;2022-10-31T05:42:19;23.63;;;10.70;;
23432;SDS011;41331;45.412;10.992;2022-10-31T05:44:47;23.45;;;10.80;;
23432;SDS011;41331;45.412;10.992;2022-10-31T05:47:37;30.20;;;12.48;;
23432;SDS011;41331;45.412;10.992;2022-10-31T05:50:28;27.25;;;11.85;;
23432;SDS011;41331;45.412;10.992;2022-10-31T05:53:07;26.30;;;12.23;;
23432;SDS011;41331;45.412;10.992;2022-10-31T05:55:37;26.27;;;12.18;;
23432;SDS011;41331;45.412;10.992;2022-10-31T05:58:10;26.55;;;11.95;;
23432;SDS011;41331;45.412;10.992;2022-10-31T06:00:41;28.45;;;12.60;;
23432;SDS011;41331;45.412;10.992;2022-10-31T06:03:10;25.30;;;12.43;;
23432;SDS011;41331;45.412;10.992;2022-10-31T06:05:46;31.35;;;12.18;;
23432;SDS011;41331;45.412;10.992;2022-10-31T06:08:20;24.63;;;11.98;;
23432;SDS011;41331;45.412;10.992;2022-10-31T06:10:49;24.20;;;11.82;;
23432;SDS011;41331;45.412;10.992;2022-10-31T06:13:22;25.83;;;11.55;;
23432;SDS011;41331;45.412;10.992;2022-10-31T06:15:57;27.38;;;11.65;;
23432;SDS011;41331;45.412;10.992;2022-10-31T06:18:33;27.10;;;12.50;;
23432;SDS011;41331;45.412;10.992;2022-10-31T06:21:01;25.50;;;10.80;;
23432;SDS011;41331;45.412;10.992;2022-10-31T06:23:28;27.55;;;11.63;;
23432;SDS011;41331;45.412;10.992;2022-10-31T06:26:15;25.90;;;12.00;;
23432;SDS011;41331;45.412;10.992;2022-10-31T06:28:43;28.98;;;12.25;;
23432;SDS011;41331;45.412;10.992;2022-10-31T06:31:26;31.98;;;13.05;;
23432;SDS011;41331;45.412;10.992;2022-10-31T06:33:53;25.88;;;12.50;;
23432;SDS011;41331;45.412;10.992;2022-10-31T06:36:21;29.60;;;12.60;;
23432;SDS011;41331;45.412;10.992;2022-10-31T06:38:48;29.95;;;12.80;;
23432;SDS011;41331;45.412;10.992;2022-10-31T06:41:20;26.52;;;13.25;;
23432;SDS011;41331;45.412;10.992;2022-10-31T06:43:48;24.33;;;12.73;;
23432;SDS011;41331;45.412;10.992;2022-10-31T06:46:37;25.75;;;11.82;;
23432;SDS011;41331;45.412;10.992;2022-10-31T06:49:25;24.15;;;13.20;;
23432;SDS011;41331;45.412;10.992;2022-10-31T06:51:54;25.52;;;13.65;;
23432;SDS011;41331;45.412;10.992;2022-10-31T06:54:21;26.48;;;12.82;;
23432;SDS011;41331;45.412;10.992;2022-10-31T06:56:49;26.25;;;13.05;;
23432;SDS011;41331;45.412;10.992;2022-10-31T06:59:17;30.20;;;13.40;;
23432;SDS011;41331;45.412;10.992;2022-10-31T07:02:09;24.23;;;13.60;;
23432;SDS011;41331;45.412;10.992;2022-10-31T07:04:39;29.52;;;13.30;;
23432;SDS011;41331;45.412;10.992;2022-10-31T07:07:07;25.10;;;13.38;;
23432;SDS011;41331;45.412;10.992;2022-10-31T07:09:37;24.88;;;13.02;;
23432;SDS011;41331;45.412;10.992;2022-10-31T07:12:05;28.02;;;12.93;;
23432;SDS011;41331;45.412;10.992;2022-10-31T07:14:36;25.92;;;12.02;;
23432;SDS011;41331;45.412;10.992;2022-10-31T07:17:05;27.58;;;13.13;;
23432;SDS011;41331;45.412;10.992;2022-10-31T07:19:38;27.50;;;12.85;;
23432;SDS011;41331;45.412;10.992;2022-10-31T07:22:05;24.85;;;11.80;;
23432;SDS011;41331;45.412;10.992;2022-10-31T07:24:34;25.33;;;11.30;;
23432;SDS011;41331;45.412;10.992;2022-10-31T07:27:20;28.15;;;10.70;;
23432;SDS011;41331;45.412;10.992;2022-10-31T07:29:48;22.75;;;10.52;;
23432;SDS011;41331;45.412;10.992;2022-10-31T07:32:16;100.25;;;14.00;;
23432;SDS011;41331;45.412;10.992;2022-10-31T07:34:52;26.38;;;9.65;;
23432;SDS011;41331;45.412;10.992;2022-10-31T07:37:22;19.42;;;8.15;;
23432;SDS011;41331;45.412;10.992;2022-10-31T07:39:51;18.10;;;8.48;;
23432;SDS011;41331;45.412;10.992;2022-10-31T07:42:18;28.63;;;10.25;;
23432;SDS011;41331;45.412;10.992;2022-10-31T07:44:47;22.58;;;9.93;;
23432;SDS011;41331;45.412;10.992;2022-10-31T07:47:53;28.13;;;10.80;;
23432;SDS011;41331;45.412;10.992;2022-10-31T07:50:44;24.48;;;11.77;;
23432;SDS011;41331;45.412;10.992;2022-10-31T07:53:41;26.15;;;12.70;;
23432;SDS011;41331;45.412;10.992;2022-10-31T07:56:21;32.03;;;13.00;;
23432;SDS011;41331;45.412;10.992;2022-10-31T07:58:49;31.35;;;14.32;;
23432;SDS011;41331;45.412;10.992;2022-10-31T08:01:17;28.67;;;14.23;;
23432;SDS011;41331;45.412;10.992;2022-10-31T08:03:55;30.83;;;14.77;;
23432;SDS011;41331;45.412;10.992;2022-10-31T08:06:58;31.08;;;14.10;;
23432;SDS011;41331;45.412;10.992;2022-10-31T08:09:31;24.30;;;13.82;;
23432;SDS011;41331;45.412;10.992;2022-10-31T08:12:02;33.92;;;15.60;;
23432;SDS011;41331;45.412;10.992;2022-10-31T08:14:32;28.83;;;14.07;;
23432;SDS011;41331;45.412;10.992;2022-10-31T08:17:00;26.25;;;13.60;;
23432;SDS011;41331;45.412;10.992;2022-10-31T08:19:36;24.08;;;13.25;;
23432;SDS011;41331;45.412;10.992;2022-10-31T08:22:04;25.63;;;13.93;;
23432;SDS011;41331;45.412;10.992;2022-10-31T08:24:31;25.52;;;12.77;;
23432;SDS011;41331;45.412;10.992;2022-10-31T08:26:59;24.40;;;13.20;;
23432;SDS011;41331;45.412;10.992;2022-10-31T08:29:26;24.45;;;12.43;;
23432;SDS011;41331;45.412;10.992;2022-10-31T08:31:54;69.38;;;49.38;;
23432;SDS011;41331;45.412;10.992;2022-10-31T08:34:44;28.95;;;12.50;;
23432;SDS011;41331;45.412;10.992;2022-10-31T08:37:30;27.67;;;12.95;;
23432;SDS011;41331;45.412;10.992;2022-10-31T08:39:57;20.25;;;11.95;;
23432;SDS011;41331;45.412;10.992;2022-10-31T08:42:25;23.02;;;12.45;;
23432;SDS011;41331;45.412;10.992;2022-10-31T08:44:52;22.27;;;12.48;;
23432;SDS011;41331;45.412;10.992;2022-10-31T08:47:21;25.40;;;13.70;;
23432;SDS011;41331;45.412;10.992;2022-10-31T08:49:49;27.92;;;14.15;;
23432;SDS011;41331;45.412;10.992;2022-10-31T08:52:16;24.23;;;14.48;;
23432;SDS011;41331;45.412;10.992;2022-10-31T08:54:46;26.92;;;14.57;;
23432;SDS011;41331;45.412;10.992;2022-10-31T08:57:46;27.15;;;14.18;;
23432;SDS011;41331;45.412;10.992;2022-10-31T09:00:14;28.23;;;15.55;;
23432;SDS011;41331;45.412;10.992;2022-10-31T09:02:56;28.23;;;15.48;;
23432;SDS011;41331;45.412;10.992;2022-10-31T09:05:25;30.77;;;16.67;;
23432;SDS011;41331;45.412;10.992;2022-10-31T09:07:56;30.05;;;15.82;;
23432;SDS011;41331;45.412;10.992;2022-10-31T09:10:26;30.63;;;16.25;;
23432;SDS011;41331;45.412;10.992;2022-10-31T09:12:56;26.92;;;15.90;;
23432;SDS011;41331;45.412;10.992;2022-10-31T09:16:07;29.52;;;15.70;;
23432;SDS011;41331;45.412;10.992;2022-10-31T09:18:35;29.25;;;15.07;;
23432;SDS011;41331;45.412;10.992;2022-10-31T09:21:03;29.10;;;16.42;;
23432;SDS011;41331;45.412;10.992;2022-10-31T09:23:30;30.90;;;16.75;;
23432;SDS011;41331;45.412;10.992;2022-10-31T09:26:00;32.88;;;16.90;;
23432;SDS011;41331;45.412;10.992;2022-10-31T09:28:30;29.15;;;16.27;;
23432;SDS011;41331;45.412;10.992;2022-10-31T09:31:11;33.50;;;15.65;;
23432;SDS011;41331;45.412;10.992;2022-10-31T09:34:02;27.88;;;16.48;;
23432;SDS011;41331;45.412;10.992;2022-10-31T09:36:39;30.60;;;16.80;;
23432;SDS011;41331;45.412;10.992;2022-10-31T09:39:13;31.92;;;17.15;;
23432;SDS011;41331;45.412;10.992;2022-10-31T09:44:26;62.50;;;33.47;;
23432;SDS011;41331;45.412;10.992;2022-10-31T09:50:18;38.33;;;19.17;;
23432;SDS011;41331;45.412;10.992;2022-10-31T09:53:33;45.70;;;20.00;;
23432;SDS011;41331;45.412;10.992;2022-10-31T09:55:58;39.75;;;21.00;;
23432;SDS011;41331;45.412;10.992;2022-10-31T09:58:29;38.83;;;21.60;;
23432;SDS011;41331;45.412;10.992;2022-10-31T10:01:04;41.85;;;22.83;;
23432;SDS011;41331;45.412;10.992;2022-10-31T10:03:41;41.53;;;23.10;;
23432;SDS011;41331;45.412;10.992;2022-10-31T10:06:33;41.22;;;22.80;;
23432;SDS011;41331;45.412;10.992;2022-10-31T10:09:22;43.67;;;23.50;;
23432;SDS011;41331;45.412;10.992;2022-10-31T10:17:52;41.97;;;22.73;;
23432;SDS011;41331;45.412;10.992;2022-10-31T10:28:47;40.47;;;23.83;;
23432;SDS011;41331;45.412;10.992;2022-10-31T10:31:32;46.42;;;24.75;;
23432;SDS011;41331;45.412;10.992;2022-10-31T10:42:04;51.78;;;29.23;;
23432;SDS011;41331;45.412;10.992;2022-10-31T10:44:57;79.35;;;46.53;;
23432;SDS011;41331;45.412;10.992;2022-10-31T10:47:44;86.15;;;48.05;;
23432;SDS011;41331;45.412;10.992;2022-10-31T10:50:18;115.47;;;74.45;;
23432;SDS011;41331;45.412;10.992;2022-10-31T10:52:58;44.88;;;25.65;;
23432;SDS011;41331;45.412;10.992;2022-10-31T10:58:12;41.05;;;22.67;;
23432;SDS011;41331;45.412;10.992;2022-10-31T11:00:42;44.58;;;23.48;;
23432;SDS011;41331;45.412;10.992;2022-10-31T11:03:18;43.13;;;23.23;;
23432;SDS011;41331;45.412;10.992;2022-10-31T11:08:31;37.03;;;21.38;;
23432;SDS011;41331;45.412;10.992;2022-10-31T11:11:03;43.60;;;23.92;;
23432;SDS011;41331;45.412;10.992;2022-10-31T11:13:31;46.25;;;24.15;;
23432;SDS011;41331;45.412;10.992;2022-10-31T11:16:04;44.83;;;24.80;;
23432;SDS011;41331;45.412;10.992;2022-10-31T11:18:37;49.20;;;25.05;;
23432;SDS011;41331;45.412;10.992;2022-10-31T11:21:19;41.45;;;24.60;;
23432;SDS011;41331;45.412;10.992;2022-10-31T11:24:01;40.70;;;23.73;;
23432;SDS011;41331;45.412;10.992;2022-10-31T11:26:38;43.80;;;25.30;;
23432;SDS011;41331;45.412;10.992;2022-10-31T11:29:14;42.33;;;24.58;;
23432;SDS011;41331;45.412;10.992;2022-10-31T11:31:43;44.83;;;24.33;;
23432;SDS011;41331;45.412;10.992;2022-10-31T11:34:31;41.08;;;23.90;;
23432;SDS011;41331;45.412;10.992;2022-10-31T11:39:57;46.70;;;25.42;;
23432;SDS011;41331;45.412;10.992;2022-10-31T11:42:39;40.72;;;25.27;;
23432;SDS011;41331;45.412;10.992;2022-10-31T11:45:15;44.03;;;25.70;;
23432;SDS011;41331;45.412;10.992;2022-10-31T11:47:55;41.03;;;25.15;;
23432;SDS011;41331;45.412;10.992;2022-10-31T11:50:34;37.38;;;21.60;;
23432;SDS011;41331;45.412;10.992;2022-10-31T11:53:12;35.13;;;22.25;;
23432;SDS011;41331;45.412;10.992;2022-10-31T11:55:44;37.33;;;21.67;;
23432;SDS011;41331;45.412;10.992;2022-10-31T11:58:23;45.25;;;22.33;;
23432;SDS011;41331;45.412;10.992;2022-10-31T12:00:53;39.97;;;22.17;;
23432;SDS011;41331;45.412;10.992;2022-10-31T12:05:53;51.78;;;23.20;;
23432;SDS011;41331;45.412;10.992;2022-10-31T12:08:30;43.92;;;22.38;;
23432;SDS011;41331;45.412;10.992;2022-10-31T12:13:56;62.75;;;36.90;;
23432;SDS011;41331;45.412;10.992;2022-10-31T12:16:39;126.40;;;81.70;;
23432;SDS011;41331;45.412;10.992;2022-10-31T12:19:22;68.38;;;41.05;;
23432;SDS011;41331;45.412;10.992;2022-10-31T12:22:11;48.63;;;24.40;;
23432;SDS011;41331;45.412;10.992;2022-10-31T12:30:21;38.03;;;22.17;;
23432;SDS011;41331;45.412;10.992;2022-10-31T12:42:08;58.97;;;34.28;;
23432;SDS011;41331;45.412;10.992;2022-10-31T12:58:27;38.88;;;20.25;;
23432;SDS011;41331;45.412;10.992;2022-10-31T13:03:50;36.03;;;20.65;;
23432;SDS011;41331;45.412;10.992;2022-10-31T13:06:28;46.90;;;20.58;;
23432;SDS011;41331;45.412;10.992;2022-10-31T13:09:01;40.60;;;20.23;;
23432;SDS011;41331;45.412;10.992;2022-10-31T13:11:42;37.05;;;19.08;;
23432;SDS011;41331;45.412;10.992;2022-10-31T13:16:56;31.70;;;18.15;;
23432;SDS011;41331;45.412;10.992;2022-10-31T13:19:38;31.50;;;18.27;;
23432;SDS011;41331;45.412;10.992;2022-10-31T13:22:12;150.27;;;82.07;;
23432;SDS011;41331;45.412;10.992;2022-10-31T13:25:03;111.88;;;60.42;;
23432;SDS011;41331;45.412;10.992;2022-10-31T13:27:45;54.85;;;31.15;;
23432;SDS011;41331;45.412;10.992;2022-10-31T13:30:18;44.67;;;25.52;;
23432;SDS011;41331;45.412;10.992;2022-10-31T13:33:11;53.92;;;31.58;;
23432;SDS011;41331;45.412;10.992;2022-10-31T13:44:30;34.08;;;18.85;;
23432;SDS011;41331;45.412;10.992;2022-10-31T13:47:26;31.70;;;18.05;;
23432;SDS011;41331;45.412;10.992;2022-10-31T13:53:09;37.63;;;17.48;;
23432;SDS011;41331;45.412;10.992;2022-10-31T13:55:45;33.80;;;18.08;;
23432;SDS011;41331;45.412;10.992;2022-10-31T14:03:38;33.13;;;17.85;;
23432;SDS011;41331;45.412;10.992;2022-10-31T14:06:36;34.67;;;17.20;;
23432;SDS011;41331;45.412;10.992;2022-10-31T14:09:24;37.97;;;18.17;;
23432;SDS011;41331;45.412;10.992;2022-10-31T14:11:52;30.88;;;17.92;;
23432;SDS011;41331;45.412;10.992;2022-10-31T14:14:29;33.90;;;18.00;;
23432;SDS011;41331;45.412;10.992;2022-10-31T14:17:00;34.28;;;17.70;;
23432;SDS011;41331;45.412;10.992;2022-10-31T14:19:28;33.72;;;16.92;;
23432;SDS011;41331;45.412;10.992;2022-10-31T14:21:59;24.17;;;15.75;;
23432;SDS011;41331;45.412;10.992;2022-10-31T14:26:55;40.20;;;17.05;;
23432;SDS011;41331;45.412;10.992;2022-10-31T14:29:25;30.63;;;16.75;;
23432;SDS011;41331;45.412;10.992;2022-10-31T14:31:56;31.40;;;17.13;;
23432;SDS011;41331;45.412;10.992;2022-10-31T14:34:26;30.67;;;16.38;;
23432;SDS011;41331;45.412;10.992;2022-10-31T14:45:54;27.92;;;15.35;;
23432;SDS011;41331;45.412;10.992;2022-10-31T14:51:43;30.60;;;14.95;;
23432;SDS011;41331;45.412;10.992;2022-10-31T14:54:25;31.17;;;14.82;;
23432;SDS011;41331;45.412;10.992;2022-10-31T14:57:05;26.45;;;14.60;;
23432;SDS011;41331;45.412;10.992;2022-10-31T14:59:40;22.25;;;13.85;;
23432;SDS011;41331;45.412;10.992;2022-10-31T15:02:17;31.35;;;15.40;;
23432;SDS011;41331;45.412;10.992;2022-10-31T15:04:50;30.58;;;14.77;;
23432;SDS011;41331;45.412;10.992;2022-10-31T15:07:26;24.52;;;14.50;;
23432;SDS011;41331;45.412;10.992;2022-10-31T15:10:01;24.80;;;14.45;;
23432;SDS011;41331;45.412;10.992;2022-10-31T15:17:41;24.45;;;14.02;;
23432;SDS011;41331;45.412;10.992;2022-10-31T15:20:12;24.40;;;13.48;;
23432;SDS011;41331;45.412;10.992;2022-10-31T15:22:46;30.23;;;14.20;;
23432;SDS011;41331;45.412;10.992;2022-10-31T15:25:18;27.15;;;14.27;;
23432;SDS011;41331;45.412;10.992;2022-10-31T15:27:48;27.25;;;14.15;;
23432;SDS011;41331;45.412;10.992;2022-10-31T15:30:17;27.52;;;14.68;;
23432;SDS011;41331;45.412;10.992;2022-10-31T15:32:50;25.52;;;13.75;;
23432;SDS011;41331;45.412;10.992;2022-10-31T15:35:29;25.27;;;14.70;;
23432;SDS011;41331;45.412;10.992;2022-10-31T15:37:58;23.92;;;14.20;;
23432;SDS011;41331;45.412;10.992;2022-10-31T15:40:27;28.90;;;14.35;;
23432;SDS011;41331;45.412;10.992;2022-10-31T15:43:01;32.50;;;13.95;;
23432;SDS011;41331;45.412;10.992;2022-10-31T15:45:31;27.23;;;14.60;;
23432;SDS011;41331;45.412;10.992;2022-10-31T15:48:00;27.00;;;14.77;;
23432;SDS011;41331;45.412;10.992;2022-10-31T15:50:37;28.63;;;13.35;;
23432;SDS011;41331;45.412;10.992;2022-10-31T15:53:41;27.40;;;14.63;;
23432;SDS011;41331;45.412;10.992;2022-10-31T15:56:05;27.40;;;14.10;;
23432;SDS011;41331;45.412;10.992;2022-10-31T15:58:45;27.38;;;14.30;;
23432;SDS011;41331;45.412;10.992;2022-10-31T16:01:25;38.85;;;14.57;;
23432;SDS011;41331;45.412;10.992;2022-10-31T16:06:34;29.20;;;15.52;;
23432;SDS011;41331;45.412;10.992;2022-10-31T16:09:02;41.05;;;16.02;;
23432;SDS011;41331;45.412;10.992;2022-10-31T16:16:29;33.30;;;16.40;;
23432;SDS011;41331;45.412;10.992;2022-10-31T16:19:03;36.03;;;16.45;;
23432;SDS011;41331;45.412;10.992;2022-10-31T16:21:36;35.03;;;16.45;;
23432;SDS011;41331;45.412;10.992;2022-10-31T16:24:15;35.00;;;16.48;;
23432;SDS011;41331;45.412;10.992;2022-10-31T16:26:49;28.98;;;15.70;;
23432;SDS011;41331;45.412;10.992;2022-10-31T16:29:26;34.08;;;15.73;;
23432;SDS011;41331;45.412;10.992;2022-10-31T16:35:23;34.58;;;15.75;;
23432;SDS011;41331;45.412;10.992;2022-10-31T16:37:53;35.50;;;16.33;;
23432;SDS011;41331;45.412;10.992;2022-10-31T16:40:21;37.45;;;15.95;;
23432;SDS011;41331;45.412;10.992;2022-10-31T16:42:48;28.70;;;14.60;;
23432;SDS011;41331;45.412;10.992;2022-10-31T16:45:20;36.72;;;16.45;;
23432;SDS011;41331;45.412;10.992;2022-10-31T16:47:50;34.13;;;18.45;;
23432;SDS011;41331;45.412;10.992;2022-10-31T16:50:20;43.38;;;18.60;;
23432;SDS011;41331;45.412;10.992;2022-10-31T16:53:06;38.08;;;17.70;;
23432;SDS011;41331;45.412;10.992;2022-10-31T16:55:41;32.53;;;17.08;;
23432;SDS011;41331;45.412;10.992;2022-10-31T16:58:16;31.23;;;16.50;;
23432;SDS011;41331;45.412;10.992;2022-10-31T17:00:47;35.75;;;17.38;;
23432;SDS011;41331;45.412;10.992;2022-10-31T17:03:15;31.60;;;16.27;;
23432;SDS011;41331;45.412;10.992;2022-10-31T17:05:42;34.55;;;18.25;;
23432;SDS011;41331;45.412;10.992;2022-10-31T17:08:10;43.72;;;19.35;;
23432;SDS011;41331;45.412;10.992;2022-10-31T17:10:38;33.55;;;18.02;;
23432;SDS011;41331;45.412;10.992;2022-10-31T17:13:07;43.67;;;19.77;;
23432;SDS011;41331;45.412;10.992;2022-10-31T17:15:42;43.60;;;19.55;;
23432;SDS011;41331;45.412;10.992;2022-10-31T17:18:13;44.25;;;18.65;;
23432;SDS011;41331;45.412;10.992;2022-10-31T17:20:41;36.58;;;17.98;;
23432;SDS011;41331;45.412;10.992;2022-10-31T17:23:12;43.80;;;18.25;;
23432;SDS011;41331;45.412;10.992;2022-10-31T17:25:41;32.78;;;17.13;;
23432;SDS011;41331;45.412;10.992;2022-10-31T17:28:10;137.52;;;73.95;;
23432;SDS011;41331;45.412;10.992;2022-10-31T17:30:40;40.80;;;23.30;;
23432;SDS011;41331;45.412;10.992;2022-10-31T17:33:12;36.97;;;17.75;;
23432;SDS011;41331;45.412;10.992;2022-10-31T17:35:41;38.80;;;18.08;;
23432;SDS011;41331;45.412;10.992;2022-10-31T17:38:10;45.75;;;18.10;;
23432;SDS011;41331;45.412;10.992;2022-10-31T17:40:39;34.08;;;17.85;;